.
WxDataArchive / Data Records for 2011-02-08
2011-02-07 February 2011 2011-02-09

Data Records for Tuesday, 08 February 2011

Time	Temp	Chill	HIndex	Humid	Dewpt	 Wind 	HiWind	WindDir	Rain 	Barom 
-----	----	-----	------	-----	-----	------	------	-------	-----	----- 
00:00	25.4	25.4	25.4	69	16.7	1	2	292	0.00	30.003 
00:05	25.4	25.4	25.4	70	17.0	0	2	315	0.00	30.003 
00:10	25.3	25.3	25.3	71	17.2	0	2	315	0.00	30.003 
00:15	25.3	25.3	25.3	72	17.6	1	3	270	0.00	30.002 
00:20	25.3	25.3	25.3	73	17.9	1	3	270	0.00	30.002 
00:25	25.1	25.1	25.1	73	17.7	0	2	248	0.00	30.002 
00:30	25.1	25.1	25.1	74	18.0	0	2	338	0.00	30.006 
00:35	25.1	25.1	25.1	74	18.0	0	2	338	0.00	30.006 
00:40	25.0	25.0	25.0	74	17.9	0	1	338	0.00	30.006 
00:45	25.0	25.0	25.0	74	17.9	0	2	338	0.00	30.008 
00:50	25.0	25.0	25.0	74	17.9	0	2	338	0.00	30.008 
00:55	24.8	24.8	24.8	75	18.0	0	2	338	0.00	30.008 
01:00	24.8	24.8	24.8	75	18.0	1	3	338	0.00	30.011 
01:05	24.7	24.7	24.7	75	17.9	0	1	338	0.00	30.011 
01:10	24.7	24.7	24.7	75	17.9	0	1	338	0.00	30.011 
01:15	24.5	24.5	24.5	76	18.0	1	4	292	0.00	30.013 
01:20	24.4	24.4	24.4	76	17.9	1	2	338	0.00	30.013 
01:25	24.4	24.4	24.4	76	17.9	1	3	338	0.00	30.013 
01:30	24.2	24.2	24.2	76	17.7	0	2	292	0.00	30.017 
01:35	24.1	24.1	24.1	76	17.7	0	2	292	0.00	30.017 
01:40	24.1	24.1	24.1	76	17.7	0	2	292	0.00	30.017 
01:45	24.1	24.1	24.1	76	17.7	0	1	270	0.00	30.022 
01:50	23.9	23.9	23.9	76	17.5	0	1	270	0.00	30.022 
01:55	23.9	23.9	23.9	75	17.2	0	2	270	0.00	30.022 
02:00	23.8	23.8	23.8	75	17.1	0	1	270	0.00	30.025 
02:05	23.6	23.6	23.6	74	16.6	0	1	270	0.00	30.025 
02:10	23.3	23.3	23.3	74	16.3	0	1	270	0.00	30.025 
02:15	23.2	23.2	23.2	74	16.2	0	2	270	0.00	30.033 
02:20	22.9	22.9	22.9	73	15.6	0	2	270	0.00	30.033 
02:25	22.7	22.7	22.7	73	15.4	0	2	315	0.00	30.033 
02:30	22.5	22.5	22.5	73	15.2	0	2	315	0.00	30.036 
02:35	22.4	22.4	22.4	72	14.8	0	2	315	0.00	30.036 
02:40	22.4	22.4	22.4	72	14.8	0	3	315	0.00	30.036 
02:45	22.4	22.4	22.4	71	14.4	0	2	315	0.00	30.042 
02:50	22.4	22.4	22.4	70	14.1	1	3	315	0.00	30.042 
02:55	22.2	22.2	22.2	70	13.9	0	1	315	0.00	30.042 
03:00	22.1	22.1	22.1	70	13.8	0	2	315	0.00	30.046 
03:05	21.9	21.9	21.9	70	13.6	0	2	315	0.00	30.046 
03:10	21.6	21.6	21.6	70	13.4	0	1	315	0.00	30.046 
03:15	21.4	21.4	21.4	70	13.2	0	1	315	0.00	30.039 
03:20	21.1	21.1	21.1	70	12.9	0	1	315	0.00	30.039 
03:25	21.0	21.0	21.0	70	12.8	0	0	---	0.00	30.039 
03:30	20.6	20.6	20.6	71	12.7	0	0	---	0.00	30.045 
03:35	20.3	20.3	20.3	71	12.4	0	1	315	0.00	30.045 
03:40	20.2	20.2	20.2	72	12.6	0	1	315	0.00	30.045 
03:45	20.0	20.0	20.0	72	12.5	0	0	---	0.00	30.055 
03:50	19.7	19.7	19.7	72	12.2	0	0	---	0.00	30.055 
03:55	19.7	19.7	19.7	73	12.5	0	1	315	0.00	30.055 
04:00	19.5	19.5	19.5	73	12.3	0	2	315	0.00	30.061 
04:05	19.5	19.5	19.5	73	12.3	0	1	315	0.00	30.061 
04:10	19.5	19.5	19.5	73	12.3	0	0	---	0.00	30.061 
04:15	19.4	19.4	19.4	73	12.2	0	1	315	0.00	30.066 
04:20	19.4	19.4	19.4	73	12.2	0	0	---	0.00	30.066 
04:25	19.5	19.5	19.5	74	12.6	0	1	315	0.00	30.066 
04:30	19.5	19.5	19.5	74	12.6	0	0	---	0.00	30.069 
04:35	19.7	19.7	19.7	74	12.8	0	1	315	0.00	30.069 
04:40	19.7	19.7	19.7	74	12.8	0	2	315	0.00	30.069 
04:45	19.7	19.7	19.7	74	12.8	0	1	315	0.00	30.070 
04:50	19.7	19.7	19.7	74	12.8	0	2	315	0.00	30.070 
04:55	19.9	19.9	19.9	74	13.0	0	3	315	0.00	30.070 
05:00	19.9	19.9	19.9	73	12.7	0	1	315	0.00	30.080 
05:05	19.9	19.9	19.9	73	12.7	0	1	315	0.00	30.080 
05:10	19.9	19.9	19.9	73	12.7	1	3	270	0.00	30.080 
05:15	19.9	19.9	19.9	73	12.7	0	2	270	0.00	30.087 
05:20	19.9	19.9	19.9	73	12.7	0	1	270	0.00	30.087 
05:25	19.9	19.9	19.9	73	12.7	0	2	270	0.00	30.087 
05:30	19.7	19.7	19.7	73	12.5	0	2	270	0.00	30.099 
05:35	19.7	19.7	19.7	74	12.8	0	2	270	0.00	30.099 
05:40	19.5	19.5	19.5	74	12.6	0	1	338	0.00	30.099 
05:45	19.5	19.5	19.5	74	12.6	1	3	338	0.00	30.104 
05:50	19.4	19.4	19.4	75	12.8	0	2	270	0.00	30.104 
05:55	19.2	19.2	19.2	75	12.6	0	5	270	0.00	30.104 
06:00	19.1	19.1	19.1	75	12.5	0	1	270	0.00	30.111 
06:05	18.9	18.9	18.9	75	12.3	0	1	270	0.00	30.111 
06:10	18.8	18.8	18.8	75	12.2	0	1	270	0.00	30.111 
06:15	18.6	18.6	18.6	75	12.0	0	1	270	0.00	30.120 
06:20	18.4	18.4	18.4	76	12.1	0	1	270	0.00	30.120 
06:25	18.3	18.3	18.3	76	12.0	0	1	270	0.00	30.120 
06:30	18.3	18.3	18.3	76	12.0	0	1	270	0.00	30.123 
06:35	18.1	18.1	18.1	76	11.8	0	1	270	0.00	30.123 
06:40	18.0	18.0	18.0	76	11.7	0	1	270	0.00	30.123 
06:45	17.8	17.8	17.8	77	11.8	0	1	270	0.00	30.131 
06:50	17.7	17.7	17.7	77	11.7	0	1	270	0.00	30.131 
06:55	17.5	17.5	17.5	77	11.5	0	1	270	0.00	30.131 
07:00	17.5	17.5	17.5	77	11.5	0	1	270	0.00	30.136 
07:05	17.3	17.3	17.3	77	11.3	0	0	---	0.00	30.136 
07:10	17.2	17.2	17.2	77	11.3	0	1	270	0.00	30.136 
07:15	17.2	17.2	17.2	77	11.3	0	1	270	0.00	30.145 
07:20	17.0	17.0	17.0	78	11.3	0	2	270	0.00	30.145 
07:25	17.0	17.0	17.0	78	11.3	0	2	270	0.00	30.145 
07:30	16.9	16.9	16.9	79	11.5	0	1	270	0.00	30.144 
07:35	16.7	16.7	16.7	79	11.3	0	1	270	0.00	30.144 
07:40	16.5	16.5	16.5	80	11.4	0	1	135	0.00	30.144 
07:45	16.5	16.5	16.5	80	11.4	0	1	135	0.00	30.154 
07:50	16.5	16.5	16.5	81	11.7	0	0	---	0.00	30.154 
07:55	16.4	16.4	16.4	80	11.3	0	3	0	0.00	30.154 
08:00	16.2	16.2	16.2	80	11.1	0	1	0	0.00	30.168 
08:05	16.1	16.1	16.1	80	11.0	0	0	---	0.00	30.168 
08:10	16.1	16.1	16.1	81	11.3	0	0	---	0.00	30.168 
08:15	15.9	15.9	15.9	81	11.1	0	1	248	0.00	30.175 
08:20	15.9	15.9	15.9	81	11.1	0	0	---	0.00	30.175 
08:25	15.9	15.9	15.9	81	11.1	0	1	248	0.00	30.175 
08:30	15.7	15.7	15.7	81	10.9	0	1	0	0.00	30.191 
08:35	15.7	15.7	15.7	81	10.9	0	2	0	0.00	30.191 
08:40	15.6	15.6	15.6	81	10.8	1	4	112	0.00	30.191 
08:45	15.2	15.2	15.2	80	10.2	0	3	112	0.00	30.201 
08:50	15.1	15.1	15.1	80	10.1	0	2	0	0.00	30.201 
08:55	15.1	15.1	15.1	79	9.8	1	5	135	0.00	30.201 
09:00	15.1	15.1	15.1	79	9.8	0	3	135	0.00	30.209 
09:05	15.1	15.1	15.1	78	9.5	0	3	112	0.00	30.209 
09:10	15.1	15.1	15.1	77	9.2	0	2	135	0.00	30.209 
09:15	15.2	15.2	15.2	77	9.3	1	3	158	0.00	30.220 
09:20	15.2	15.2	15.2	76	9.0	0	2	90	0.00	30.220 
09:25	15.4	15.4	15.4	76	9.2	0	2	68	0.00	30.220 
09:30	15.2	15.2	15.2	74	8.4	1	3	90	0.00	30.223 
09:35	15.2	15.2	15.2	73	8.1	1	3	112	0.00	30.223 
09:40	15.2	15.2	15.2	72	7.8	1	3	135	0.00	30.223 
09:45	15.2	15.2	15.2	71	7.5	1	2	90	0.00	30.236 
09:50	15.4	15.4	15.4	71	7.7	0	1	90	0.00	30.236 
09:55	15.6	15.6	15.6	70	7.6	0	2	90	0.00	30.236 
10:00	15.7	15.7	15.7	69	7.4	0	3	90	0.00	30.244 
10:05	15.9	15.9	15.9	68	7.2	0	3	90	0.00	30.244 
10:10	16.2	16.2	16.2	67	7.2	0	2	90	0.00	30.244 
10:15	16.5	16.5	16.5	67	7.5	1	3	90	0.00	30.252 
10:20	16.7	16.7	16.7	67	7.7	0	2	90	0.00	30.252 
10:25	16.7	16.7	16.7	69	8.3	0	2	90	0.00	30.252 
10:30	16.9	16.9	16.9	69	8.5	0	1	90	0.00	30.263 
10:35	17.0	17.0	17.0	69	8.6	0	2	90	0.00	30.263 
10:40	17.3	17.3	17.3	69	8.9	0	1	90	0.00	30.263 
10:45	17.7	17.7	17.7	69	9.3	0	2	90	0.00	30.275 
10:50	17.5	17.5	17.5	67	8.4	0	2	292	0.00	30.275 
10:55	17.8	17.8	17.8	67	8.7	0	2	292	0.00	30.275 
11:00	18.1	18.1	18.1	66	8.7	0	2	292	0.00	30.293 
11:05	18.3	18.3	18.3	63	7.8	0	2	292	0.00	30.293 
11:10	18.6	18.6	18.6	63	8.1	0	2	292	0.00	30.293 
11:15	18.9	18.9	18.9	62	8.1	0	3	292	0.00	30.303 
11:20	18.9	18.9	18.9	60	7.3	1	3	292	0.00	30.303 
11:25	19.2	19.2	19.2	59	7.3	0	2	315	0.00	30.303 
11:30	19.2	19.2	19.2	58	6.9	0	3	315	0.00	30.311 
11:35	19.1	19.1	19.1	57	6.4	0	1	315	0.00	30.311 
11:40	19.1	19.1	19.1	56	6.0	1	3	315	0.00	30.311 
11:45	19.4	19.4	19.4	53	5.1	0	4	315	0.00	30.321 
11:50	19.5	19.5	19.5	50	3.9	1	3	0	0.00	30.321 
11:55	19.5	19.5	19.5	50	3.9	1	5	270	0.00	30.321 
12:00	19.4	19.4	19.4	49	3.4	2	4	270	0.00	30.328 
12:05	19.4	19.4	19.4	50	3.8	0	2	248	0.00	30.328 
12:10	19.9	19.9	19.9	51	4.7	0	2	248	0.00	30.328 
12:15	19.9	19.9	19.9	48	3.4	1	2	270	0.00	30.329 
12:20	19.7	19.7	19.7	48	3.2	1	4	270	0.00	30.329 
12:25	19.7	19.7	19.7	48	3.2	0	2	270	0.00	30.329 
12:30	19.9	19.9	19.9	48	3.4	1	3	270	0.00	30.327 
12:35	19.5	19.5	19.5	45	1.7	0	2	270	0.00	30.327 
12:40	19.2	19.2	19.2	46	1.9	1	3	0	0.00	30.327 
12:45	19.5	19.5	19.5	46	2.1	1	3	248	0.00	30.323 
12:50	20.0	20.0	20.0	46	2.6	1	2	248	0.00	30.323 
12:55	20.0	20.0	20.0	45	2.1	0	2	248	0.00	30.323 
13:00	19.9	19.9	19.9	45	2.0	0	1	248	0.00	30.317 
13:05	19.9	19.9	19.9	46	2.5	0	2	248	0.00	30.317 
13:10	19.9	19.9	19.9	45	2.0	0	2	248	0.00	30.317 
13:15	20.0	20.0	20.0	46	2.6	0	1	248	0.00	30.314 
13:20	20.3	20.3	20.3	49	4.2	0	2	248	0.00	30.314 
13:25	20.5	20.5	20.5	48	4.0	1	3	248	0.00	30.314 
13:30	20.8	20.8	20.8	47	3.8	1	3	248	0.00	30.313 
13:35	21.0	21.0	21.0	46	3.5	1	3	248	0.00	30.313 
13:40	21.0	21.0	21.0	46	3.5	1	4	270	0.00	30.313 
13:45	21.0	21.0	21.0	48	4.4	1	3	248	0.00	30.314 
13:50	21.1	21.1	21.1	48	4.5	1	3	248	0.00	30.314 
13:55	21.6	21.6	21.6	50	5.9	1	3	248	0.00	30.314 
14:00	21.4	21.4	21.4	49	5.2	1	3	248	0.00	30.312 
14:05	21.3	21.3	21.3	48	4.7	1	4	248	0.00	30.312 
14:10	21.0	21.0	21.0	45	3.0	1	5	338	0.00	30.312 
14:15	21.0	21.0	21.0	46	3.5	1	3	22	0.00	30.313 
14:20	21.0	21.0	21.0	45	3.0	1	4	248	0.00	30.313 
14:25	21.0	21.0	21.0	45	3.0	1	4	338	0.00	30.313 
14:30	20.8	20.8	20.8	44	2.4	1	4	270	0.00	30.312 
14:35	21.0	21.0	21.0	46	3.5	1	4	315	0.00	30.312 
14:40	20.6	20.6	20.6	46	3.1	1	5	292	0.00	30.312 
14:45	21.0	21.0	21.0	50	5.3	1	3	292	0.00	30.316 
14:50	21.3	21.3	21.3	48	4.7	2	5	270	0.00	30.316 
14:55	21.1	21.1	21.1	47	4.1	1	4	338	0.00	30.316 
15:00	21.1	21.1	21.1	47	4.1	1	4	270	0.00	30.321 
15:05	21.1	21.1	21.1	47	4.1	1	3	315	0.00	30.321 
15:10	21.3	21.3	21.3	49	5.2	1	3	225	0.00	30.321 
15:15	21.4	21.4	21.4	48	4.8	1	3	292	0.00	30.321 
15:20	21.4	21.4	21.4	48	4.8	1	4	248	0.00	30.321 
15:25	21.6	21.6	21.6	47	4.5	2	4	292	0.00	30.321 
15:30	21.0	21.0	21.0	47	4.0	2	5	248	0.00	30.328 
15:35	21.0	21.0	21.0	48	4.4	2	3	248	0.00	30.328 
15:40	21.1	21.1	21.1	48	4.5	2	4	248	0.00	30.328 
15:45	20.8	20.8	20.8	47	3.8	1	3	338	0.00	30.332 
15:50	20.6	20.6	20.6	47	3.6	2	4	315	0.00	30.332 
15:55	20.5	20.5	20.5	48	4.0	2	4	270	0.00	30.332 
16:00	20.3	20.3	20.3	47	3.3	1	4	270	0.00	30.331 
16:05	20.2	20.2	20.2	48	3.7	1	3	338	0.00	30.331 
16:10	20.5	20.5	20.5	50	4.8	1	5	248	0.00	30.331 
16:15	20.6	20.6	20.6	50	4.9	1	4	338	0.00	30.331 
16:20	20.8	20.8	20.8	51	5.6	2	4	248	0.00	30.331 
16:25	20.5	20.5	20.5	53	6.1	1	3	315	0.00	30.331 
16:30	20.3	20.3	20.3	53	5.9	1	2	225	0.00	30.338 
16:35	20.0	20.0	20.0	54	6.1	1	4	270	0.00	30.338 
16:40	19.7	19.7	19.7	55	6.2	1	3	248	0.00	30.338 
16:45	19.7	19.7	19.7	56	6.6	1	3	248	0.00	30.340 
16:50	19.9	19.9	19.9	58	7.5	1	5	225	0.00	30.340 
16:55	20.0	20.0	20.0	58	7.6	2	7	225	0.00	30.340 
17:00	20.0	20.0	20.0	59	8.0	2	6	248	0.00	30.345 
17:05	19.7	19.7	19.7	60	8.1	2	5	270	0.00	30.345 
17:10	19.7	19.7	19.7	60	8.1	1	3	248	0.00	30.345 
17:15	19.5	19.5	19.5	60	7.9	1	2	248	0.00	30.349 
17:20	19.2	19.2	19.2	60	7.6	1	4	248	0.00	30.349 
17:25	18.8	18.8	18.8	61	7.6	1	4	248	0.00	30.349 
17:30	18.4	18.4	18.4	62	7.6	1	4	248	0.00	30.349 
17:35	18.4	18.4	18.4	63	7.9	1	4	225	0.00	30.349 
17:40	18.3	18.3	18.3	63	7.8	2	4	248	0.00	30.349 
17:45	18.1	18.1	18.1	64	8.0	2	5	248	0.00	30.348 
17:50	18.0	18.0	18.0	64	7.9	3	7	248	0.00	30.348 
17:55	17.8	17.8	17.8	65	8.1	2	6	248	0.00	30.348 
18:00	17.8	17.8	17.8	65	8.1	1	6	248	0.00	30.351 
18:05	17.7	17.7	17.7	66	8.3	1	4	248	0.00	30.351 
18:10	17.5	17.5	17.5	66	8.1	2	7	248	0.00	30.351 
18:15	17.5	17.5	17.5	66	8.1	2	5	225	0.00	30.352 
18:20	17.3	17.3	17.3	66	7.9	2	5	225	0.00	30.352 
18:25	17.2	17.2	17.2	66	7.8	2	5	248	0.00	30.352 
18:30	16.9	16.9	16.9	67	7.9	2	4	248	0.00	30.362 
18:35	16.7	16.7	16.7	67	7.7	2	5	248	0.00	30.362 
18:40	16.5	16.5	16.5	68	7.8	2	5	270	0.00	30.362 
18:45	16.5	16.5	16.5	68	7.8	2	5	248	0.00	30.366 
18:50	16.2	16.2	16.2	69	7.8	2	6	248	0.00	30.366 
18:55	16.1	16.1	16.1	69	7.8	1	4	225	0.00	30.366 
19:00	15.7	15.7	15.7	70	7.7	2	4	248	0.00	30.369 
19:05	15.6	15.6	15.6	70	7.6	1	3	270	0.00	30.369 
19:10	15.4	15.4	15.4	71	7.7	1	3	270	0.00	30.369 
19:15	15.4	15.4	15.4	71	7.7	1	3	248	0.00	30.383 
19:20	15.4	15.4	15.4	71	7.7	2	5	225	0.00	30.383 
19:25	15.4	15.4	15.4	72	8.0	2	5	248	0.00	30.383 
19:30	15.4	15.4	15.4	72	8.0	2	9	248	0.00	30.388 
19:35	15.2	15.2	15.2	72	7.8	2	5	248	0.00	30.388 
19:40	15.2	15.2	15.2	72	7.8	2	5	248	0.00	30.388 
19:45	15.1	15.1	15.1	72	7.7	2	6	248	0.00	30.386 
19:50	15.1	15.1	15.1	72	7.7	2	5	248	0.00	30.386 
19:55	14.9	14.9	14.9	72	7.5	2	5	248	0.00	30.386 
20:00	14.8	14.8	14.8	72	7.4	3	6	248	0.00	30.387 
20:05	14.6	14.6	14.6	72	7.2	2	7	248	0.00	30.387 
20:10	14.3	14.3	14.3	72	7.0	1	4	248	0.00	30.387 
20:15	14.1	14.1	14.1	72	6.8	2	4	248	0.00	30.389 
20:20	14.0	14.0	14.0	72	6.7	2	6	248	0.00	30.389 
20:25	13.6	13.6	13.6	72	6.3	1	3	270	0.00	30.389 
20:30	13.3	13.3	13.3	72	6.0	2	4	248	0.00	30.389 
20:35	12.9	12.9	12.9	72	5.6	2	5	248	0.00	30.389 
20:40	12.6	12.6	12.6	72	5.3	2	4	248	0.00	30.389 
20:45	12.4	12.4	12.4	72	5.1	2	5	248	0.00	30.394 
20:50	12.1	12.1	12.1	72	4.8	1	4	248	0.00	30.394 
20:55	11.7	11.7	11.7	72	4.4	1	4	225	0.00	30.394 
21:00	11.6	11.6	11.6	72	4.4	2	5	248	0.00	30.393 
21:05	11.4	11.4	11.4	73	4.5	1	4	248	0.00	30.393 
21:10	11.2	11.2	11.2	73	4.3	1	3	248	0.00	30.393 
21:15	10.9	10.9	10.9	73	4.0	2	5	248	0.00	30.392 
21:20	10.9	10.9	10.9	73	4.0	2	4	225	0.00	30.392 
21:25	10.7	10.7	10.7	73	3.8	1	4	248	0.00	30.392 
21:30	10.5	10.5	10.5	74	3.9	1	5	248	0.00	30.391 
21:35	10.5	10.5	10.5	74	3.9	1	3	248	0.00	30.391 
21:40	10.4	10.4	10.4	74	3.8	2	4	248	0.00	30.391 
21:45	10.2	10.2	10.2	74	3.6	1	3	248	0.00	30.392 
21:50	10.2	10.2	10.2	74	3.6	1	4	248	0.00	30.392 
21:55	10.0	10.0	10.0	75	3.7	2	4	248	0.00	30.392 
22:00	9.9	9.9	9.9	75	3.6	1	2	248	0.00	30.391 
22:05	9.7	9.7	9.7	75	3.4	1	2	248	0.00	30.391 
22:10	9.5	9.5	9.5	75	3.2	0	3	248	0.00	30.391 
22:15	9.3	9.3	9.3	75	3.0	1	3	248	0.00	30.388 
22:20	9.3	9.3	9.3	75	3.0	1	4	248	0.00	30.388 
22:25	9.2	9.2	9.2	75	2.9	1	3	248	0.00	30.388 
22:30	9.2	9.2	9.2	75	2.9	1	3	248	0.00	30.383 
22:35	9.2	9.2	9.2	75	2.9	1	3	248	0.00	30.383 
22:40	9.0	9.0	9.0	75	2.7	1	3	248	0.00	30.383 
22:45	9.0	9.0	9.0	75	2.7	1	3	248	0.00	30.389 
22:50	8.8	8.8	8.8	75	2.5	1	4	248	0.00	30.389 
22:55	8.6	8.6	8.6	75	2.3	1	4	248	0.00	30.389 
23:00	8.4	8.4	8.4	75	2.1	1	3	248	0.00	30.383 
23:05	8.4	8.4	8.4	75	2.1	1	5	248	0.00	30.383 
23:10	8.3	8.3	8.3	75	2.0	1	3	248	0.00	30.383 
23:15	8.1	8.1	8.1	75	1.8	1	3	248	0.00	30.379 
23:20	7.9	7.9	7.9	75	1.7	1	3	248	0.00	30.379 
23:25	7.7	7.7	7.7	75	1.5	1	3	248	0.00	30.379 
23:30	7.7	7.7	7.7	75	1.5	1	3	248	0.00	30.378 
23:35	7.6	7.6	7.6	75	1.4	1	3	248	0.00	30.378 
23:40	7.4	7.4	7.4	75	1.2	1	3	248	0.00	30.378 
23:45	7.4	7.4	7.4	75	1.2	1	2	248	0.00	30.386 
23:50	7.2	7.2	7.2	75	1.0	1	5	248	0.00	30.386 
23:55	7.2	7.2	7.2	74	0.7	1	3	248	0.00	30.386 

CoCoRaHS
IN-AL-39
A2 Web Hosting
Creative Commons License
GoDaddy
search engine by freefind advanced

loaded 2018-11-14 03:36:59 • last modified 2010-11-18 10:43:29
Privacy PolicyDisclaimer
• wx.awcolley.com is powered by PmWiki v.2002016 •
• all content (unless otherwise noted) © 2018 A W Colley